Overview Statistics Trail Chart Weather Telemetry Raw packets
 

This is the latest recevied weather packets stored in our database for station/object W5ALL-WX. If no packets are shown the sender has not sent any weather packets the latest 10 day(s).

<< 41 42 43 44 45 46 47 >>
Time Temp. Humidity Pressure Rain* Wind** Luminosity Snow
1777716692 10° C 88% 1020.4 hPa 0 mm - - -
1777716392 10.56° C 89% 1020.4 hPa 0 mm - - -
1777716092 10° C 91% 1020.3 hPa 0 mm - - -
1777715792 10° C 91% 1020.2 hPa 0 mm - - -
1777715492 10° C 92% 1020.2 hPa 0 mm - - -
1777715192 10° C 93% 1020.2 hPa 0 mm - - -
1777714892 10° C 92% 1020.2 hPa 0 mm - - -
1777714592 10° C 92% 1020.2 hPa 0 mm - - -
1777714292 10° C 92% 1020.1 hPa 0 mm - - -
1777713992 10.56° C 91% 1020.1 hPa 0 mm - - -
1777713692 10.56° C 89% 1020.1 hPa 0 mm - - -
1777713392 11.11° C 86% 1020.1 hPa 0 mm - - -
1777713092 11.67° C 80% 1019.9 hPa 0 mm - - -
1777712792 12.22° C 75% 1019.8 hPa 0 mm - - -
1777712492 12.22° C 73% 1019.9 hPa 0 mm - - -
1777712192 12.22° C 73% 1019.8 hPa 0 mm - - -
1777711892 12.22° C 73% 1019.8 hPa 0 mm - - -
1777711592 12.22° C 72% 1019.8 hPa 0 mm - - -
1777711292 12.22° C 71% 1019.9 hPa 0 mm - - -
1777710992 12.22° C 72% 1020.1 hPa 0 mm - - -
1777710692 12.22° C 73% 1020.1 hPa 0 mm - - -
1777710392 11.67° C 74% 1020.2 hPa 0 mm - - -
1777710097 11.67° C 75% 1020.3 hPa 0 mm - - -
1777709792 11.67° C 76% 1020.3 hPa 0 mm - - -
1777709492 11.67° C 76% 1020.4 hPa 0 mm - - -

* Rain latest hour (hover to see other rain measurements)
** Current wind speed in m/s (hover to see current wind gust speed)